Time,TemperatureF,DewpointF,PressureIn,WindDirection,WindDirectionDegrees,WindSpeedMPH,WindSpeedGustMPH,Humidity,HourlyPrecipIn,Conditions,Clouds,dailyrainin,SolarRadiationWatts/m^2,SoftwareType,DateUTC
2013-03-14 00:00:00,54.2,48.2,30.17,WNW,295,0.0,0.0,80,0.00,,,0.00,0,Wunderground v.1.15,2013-03-14 04:00:00,
2013-03-14 00:02:00,54.2,48.2,30.17,West,280,0.0,0.0,80,0.00,,,0.00,0,Wunderground v.1.15,2013-03-14 04:02:00,
2013-03-14 00:04:00,54.2,48.5,30.17,West,274,0.0,0.0,81,0.00,,,0.00,0,Wunderground v.1.15,2013-03-14 04:04:00,
2013-03-14 00:08:00,54.1,48.4,30.17,West,274,0.0,0.0,81,0.00,,,0.00,0,Wunderground v.1.15,2013-03-14 04:08:00,
2013-03-14 00:14:00,54.0,48.3,30.18,West,281,0.0,0.0,81,0.00,,,0.00,0,Wunderground v.1.15,2013-03-14 04:14:00,
2013-03-14 00:20:00,53.9,48.5,30.17,West,281,0.0,0.0,82,0.00,,,0.00,0,Wunderground v.1.15,2013-03-14 04:20:00,
2013-03-14 00:26:00,53.8,48.4,30.17,West,280,0.0,0.0,82,0.00,,,0.00,0,Wunderground v.1.15,2013-03-14 04:26:00,
2013-03-14 00:32:00,53.6,48.2,30.17,West,280,0.0,0.0,82,0.00,,,0.00,0,Wunderground v.1.15,2013-03-14 04:32:00,
2013-03-14 00:38:00,53.5,48.1,30.17,West,280,0.0,0.0,82,0.00,,,0.00,0,Wunderground v.1.15,2013-03-14 04:38:00,
2013-03-14 00:44:00,53.4,48.0,30.17,West,280,0.0,0.0,82,0.00,,,0.00,0,Wunderground v.1.15,2013-03-14 04:44:00,
2013-03-14 00:50:00,53.2,47.8,30.17,West,280,0.0,0.0,82,0.00,,,0.00,0,Wunderground v.1.15,2013-03-14 04:50:00,
2013-03-14 00:56:00,53.1,47.7,30.17,West,279,0.0,0.0,82,0.00,,,0.00,0,Wunderground v.1.15,2013-03-14 04:56:00,
2013-03-14 01:02:00,53.0,47.3,30.17,West,279,0.0,0.0,81,0.00,,,0.00,0,Wunderground v.1.15,2013-03-14 05:02:00,
2013-03-14 01:08:00,52.8,47.1,30.17,West,279,0.0,0.0,81,0.00,,,0.00,0,Wunderground v.1.15,2013-03-14 05:08:00,
2013-03-14 01:14:00,52.6,46.9,30.17,West,279,0.0,0.0,81,0.00,,,0.00,0,Wunderground v.1.15,2013-03-14 05:14:00,
2013-03-14 01:20:00,52.5,46.8,30.17,West,279,0.0,0.0,81,0.00,,,0.00,0,Wunderground v.1.15,2013-03-14 05:20:00,
2013-03-14 01:26:00,52.3,46.6,30.17,West,279,0.0,0.0,81,0.00,,,0.00,0,Wunderground v.1.15,2013-03-14 05:26:00,
2013-03-14 01:32:00,52.2,46.2,30.16,West,279,0.0,0.0,80,0.00,,,0.00,0,Wunderground v.1.15,2013-03-14 05:32:00,
2013-03-14 01:38:00,52.2,46.2,30.17,West,279,0.0,0.0,80,0.00,,,0.00,0,Wunderground v.1.15,2013-03-14 05:38:00,
2013-03-14 01:44:00,52.1,45.8,30.16,West,279,0.0,0.0,79,0.00,,,0.00,0,Wunderground v.1.15,2013-03-14 05:44:00,
2013-03-14 01:50:00,52.0,45.7,30.17,West,278,0.0,0.0,79,0.00,,,0.00,0,Wunderground v.1.15,2013-03-14 05:50:00,
2013-03-14 01:56:00,52.0,45.7,30.16,West,278,0.0,0.0,79,0.00,,,0.00,0,Wunderground v.1.15,2013-03-14 05:56:00,
2013-03-14 02:02:00,51.9,45.6,30.16,West,278,0.0,0.0,79,0.00,,,0.00,0,Wunderground v.1.15,2013-03-14 06:02:00,
2013-03-14 02:08:00,51.8,45.2,30.16,West,278,0.0,0.0,78,0.00,,,0.00,0,Wunderground v.1.15,2013-03-14 06:08:00,
2013-03-14 02:14:00,51.8,45.2,30.16,West,278,0.0,0.0,78,0.00,,,0.00,0,Wunderground v.1.15,2013-03-14 06:14:00,
2013-03-14 02:20:00,51.6,45.0,30.16,West,278,0.0,0.0,78,0.00,,,0.00,0,Wunderground v.1.15,2013-03-14 06:20:00,
2013-03-14 02:26:00,51.5,45.2,30.16,West,278,0.0,0.0,79,0.00,,,0.00,0,Wunderground v.1.15,2013-03-14 06:26:00,
2013-03-14 02:32:00,51.4,45.1,30.15,West,278,0.0,0.0,79,0.00,,,0.00,0,Wunderground v.1.15,2013-03-14 06:32:00,
2013-03-14 02:38:00,51.4,45.1,30.15,West,279,0.0,0.0,79,0.00,,,0.00,0,Wunderground v.1.15,2013-03-14 06:38:00,
2013-03-14 02:44:00,51.3,45.0,30.15,West,279,0.0,0.0,79,0.00,,,0.00,0,Wunderground v.1.15,2013-03-14 06:44:00,
2013-03-14 02:50:00,51.2,44.9,30.15,West,281,0.0,0.0,79,0.00,,,0.00,0,Wunderground v.1.15,2013-03-14 06:50:00,
2013-03-14 02:56:00,51.3,45.3,30.15,WNW,286,0.0,0.0,80,0.00,,,0.00,0,Wunderground v.1.15,2013-03-14 06:56:00,
2013-03-14 03:02:00,51.3,45.0,30.15,WNW,286,0.0,0.0,79,0.00,,,0.00,0,Wunderground v.1.15,2013-03-14 07:02:00,
2013-03-14 03:08:00,51.2,44.9,30.15,WNW,286,0.0,0.0,79,0.00,,,0.00,0,Wunderground v.1.15,2013-03-14 07:08:00,
2013-03-14 03:14:00,51.2,44.9,30.15,WNW,286,0.0,0.0,79,0.00,,,0.00,0,Wunderground v.1.15,2013-03-14 07:14:00,
2013-03-14 03:20:00,51.1,45.1,30.16,WNW,292,0.0,0.0,80,0.00,,,0.00,0,Wunderground v.1.15,2013-03-14 07:20:00,
2013-03-14 03:26:00,51.2,44.9,30.15,WNW,292,0.0,0.0,79,0.00,,,0.00,0,Wunderground v.1.15,2013-03-14 07:26:00,
2013-03-14 03:32:00,51.7,45.1,30.15,NW,304,0.0,1.0,78,0.00,,,0.00,0,Wunderground v.1.15,2013-03-14 07:32:00,
2013-03-14 03:38:00,52.0,45.0,30.15,NW,305,1.0,1.0,77,0.00,,,0.00,0,Wunderground v.1.15,2013-03-14 07:38:00,
2013-03-14 03:44:00,52.0,45.0,30.15,NW,305,0.0,1.0,77,0.00,,,0.00,0,Wunderground v.1.15,2013-03-14 07:44:00,
2013-03-14 03:50:00,51.9,44.9,30.15,NW,306,0.0,0.0,77,0.00,,,0.00,0,Wunderground v.1.15,2013-03-14 07:50:00,
2013-03-14 03:56:00,51.7,44.7,30.15,NW,306,0.0,0.0,77,0.00,,,0.00,0,Wunderground v.1.15,2013-03-14 07:56:00,
2013-03-14 04:02:00,51.4,44.8,30.15,NW,305,0.0,0.0,78,0.00,,,0.00,0,Wunderground v.1.15,2013-03-14 08:02:00,
2013-03-14 04:08:00,51.0,44.4,30.15,NW,306,0.0,0.0,78,0.00,,,0.00,0,Wunderground v.1.15,2013-03-14 08:08:00,
2013-03-14 04:14:00,50.5,44.2,30.15,NW,304,0.0,0.0,79,0.00,,,0.00,0,Wunderground v.1.15,2013-03-14 08:14:00,
2013-03-14 04:20:00,50.3,43.7,30.16,WNW,302,3.0,3.0,78,0.00,,,0.00,0,Wunderground v.1.15,2013-03-14 08:20:00,
2013-03-14 04:26:00,50.2,43.6,30.16,WNW,293,3.0,4.0,78,0.00,,,0.00,0,Wunderground v.1.15,2013-03-14 08:26:00,
2013-03-14 04:32:00,50.2,43.3,30.16,WNW,303,3.0,4.0,77,0.00,,,0.00,0,Wunderground v.1.15,2013-03-14 08:32:00,
2013-03-14 04:38:00,50.2,42.6,30.16,NW,304,4.0,6.0,75,0.00,,,0.00,0,Wunderground v.1.15,2013-03-14 08:38:00,
2013-03-14 04:44:00,50.4,42.4,30.16,NW,308,4.0,7.0,74,0.00,,,0.00,0,Wunderground v.1.15,2013-03-14 08:44:00,
2013-03-14 04:50:00,50.5,41.8,30.16,NW,306,3.0,6.0,72,0.00,,,0.00,0,Wunderground v.1.15,2013-03-14 08:50:00,
2013-03-14 04:56:00,50.5,41.1,30.16,NW,315,4.0,6.0,70,0.00,,,0.00,0,Wunderground v.1.15,2013-03-14 08:56:00,
2013-03-14 05:02:00,50.8,40.6,30.16,NW,308,4.0,5.0,68,0.00,,,0.00,0,Wunderground v.1.15,2013-03-14 09:02:00,
2013-03-14 05:08:00,51.1,39.7,30.16,NW,305,4.0,5.0,65,0.00,,,0.00,0,Wunderground v.1.15,2013-03-14 09:08:00,
2013-03-14 05:14:00,51.5,38.5,30.16,NW,321,4.0,4.0,61,0.00,,,0.00,0,Wunderground v.1.15,2013-03-14 09:14:00,
2013-03-14 05:20:00,51.8,37.9,30.16,NW,315,2.0,2.0,59,0.00,,,0.00,0,Wunderground v.1.15,2013-03-14 09:20:00,
2013-03-14 05:26:00,52.2,36.5,30.16,NW,317,4.0,8.0,55,0.00,,,0.00,0,Wunderground v.1.15,2013-03-14 09:26:00,
2013-03-14 05:32:00,52.4,35.8,30.16,NW,322,5.0,5.0,53,0.00,,,0.00,0,Wunderground v.1.15,2013-03-14 09:32:00,
2013-03-14 05:38:00,52.6,35.5,30.17,NW,308,4.0,6.0,52,0.00,,,0.00,0,Wunderground v.1.15,2013-03-14 09:38:00,
2013-03-14 05:44:00,52.6,35.5,30.17,WNW,292,4.0,5.0,52,0.00,,,0.00,0,Wunderground v.1.15,2013-03-14 09:44:00,
2013-03-14 05:50:00,52.5,35.4,30.17,WNW,298,2.0,2.0,52,0.00,,,0.00,0,Wunderground v.1.15,2013-03-14 09:50:00,
2013-03-14 05:56:00,52.3,35.2,30.17,NNW,341,2.0,5.0,52,0.00,,,0.00,0,Wunderground v.1.15,2013-03-14 09:56:00,
2013-03-14 06:02:00,52.2,35.1,30.17,NW,319,3.0,4.0,52,0.00,,,0.00,0,Wunderground v.1.15,2013-03-14 10:02:00,
2013-03-14 06:08:00,52.1,35.0,30.18,NNW,332,4.0,9.0,52,0.00,,,0.00,0,Wunderground v.1.15,2013-03-14 10:08:00,
2013-03-14 06:14:00,51.9,34.8,30.18,NNW,331,3.0,5.0,52,0.00,,,0.00,0,Wunderground v.1.15,2013-03-14 10:14:00,
2013-03-14 06:20:00,51.7,34.6,30.18,WNW,300,2.0,2.0,52,0.00,,,0.00,0,Wunderground v.1.15,2013-03-14 10:20:00,
2013-03-14 06:26:00,51.6,35.0,30.19,NW,312,3.0,5.0,53,0.00,,,0.00,0,Wunderground v.1.15,2013-03-14 10:26:00,
2013-03-14 06:32:00,51.5,34.9,30.19,NNW,338,3.0,11.0,53,0.00,,,0.00,0,Wunderground v.1.15,2013-03-14 10:32:00,
2013-03-14 06:38:00,51.4,34.8,30.19,NW,305,3.0,11.0,53,0.00,,,0.00,0,Wunderground v.1.15,2013-03-14 10:38:00,
2013-03-14 06:44:00,51.2,34.6,30.19,NNW,328,3.0,12.0,53,0.00,,,0.00,0,Wunderground v.1.15,2013-03-14 10:44:00,
2013-03-14 06:50:00,51.1,35.0,30.20,NW,312,4.0,4.0,54,0.00,,,0.00,0,Wunderground v.1.15,2013-03-14 10:50:00,
2013-03-14 06:56:00,51.0,34.9,30.20,NW,310,3.0,6.0,54,0.00,,,0.00,0,Wunderground v.1.15,2013-03-14 10:56:00,
2013-03-14 07:02:00,50.8,34.7,30.20,NW,319,2.0,2.0,54,0.00,,,0.00,0,Wunderground v.1.15,2013-03-14 11:02:00,
2013-03-14 07:08:00,50.8,34.7,30.20,NW,312,2.0,2.0,54,0.00,,,0.00,0,Wunderground v.1.15,2013-03-14 11:08:00,
2013-03-14 07:14:00,50.7,34.6,30.20,WNW,298,3.0,7.0,54,0.00,,,0.00,0,Wunderground v.1.15,2013-03-14 11:14:00,
2013-03-14 07:20:00,50.7,34.6,30.20,NNW,330,3.0,6.0,54,0.00,,,0.00,0,Wunderground v.1.15,2013-03-14 11:20:00,
2013-03-14 07:26:00,50.6,34.6,30.21,WNW,292,4.0,11.0,54,0.00,,,0.00,0,Wunderground v.1.15,2013-03-14 11:26:00,
2013-03-14 07:32:00,50.5,34.5,30.21,NW,317,5.0,9.0,54,0.00,,,0.00,5,Wunderground v.1.15,2013-03-14 11:32:00,
2013-03-14 07:38:00,50.4,34.4,30.21,NW,306,5.0,10.0,54,0.00,,,0.00,9,Wunderground v.1.15,2013-03-14 11:38:00,
2013-03-14 07:44:00,50.4,34.4,30.21,NW,311,5.0,12.0,54,0.00,,,0.00,12,Wunderground v.1.15,2013-03-14 11:44:00,
2013-03-14 07:50:00,50.3,34.7,30.21,NW,326,3.0,3.0,55,0.00,,,0.00,18,Wunderground v.1.15,2013-03-14 11:50:00,
2013-03-14 07:56:00,50.2,34.6,30.22,WNW,298,2.0,3.0,55,0.00,,,0.00,21,Wunderground v.1.15,2013-03-14 11:56:00,
2013-03-14 08:02:00,50.1,34.5,30.22,WNW,300,2.0,2.0,55,0.00,,,0.00,32,Wunderground v.1.15,2013-03-14 12:02:00,
2013-03-14 08:08:00,50.1,35.0,30.22,NW,322,1.0,2.0,56,0.00,,,0.00,46,Wunderground v.1.15,2013-03-14 12:08:00,
2013-03-14 08:14:00,50.1,35.0,30.23,NW,315,1.0,6.0,56,0.00,,,0.00,63,Wunderground v.1.15,2013-03-14 12:14:00,
2013-03-14 08:20:00,50.3,35.6,30.23,NW,316,1.0,1.0,57,0.00,,,0.00,83,Wunderground v.1.15,2013-03-14 12:20:00,
2013-03-14 08:26:00,50.6,35.9,30.23,NW,309,3.0,14.0,57,0.00,,,0.00,107,Wunderground v.1.15,2013-03-14 12:26:00,
2013-03-14 08:32:00,51.0,36.3,30.23,NNW,334,3.0,3.0,57,0.00,,,0.00,130,Wunderground v.1.15,2013-03-14 12:32:00,
2013-03-14 08:38:00,51.4,36.2,30.23,NW,306,3.0,7.0,56,0.00,,,0.00,158,Wunderground v.1.15,2013-03-14 12:38:00,
2013-03-14 08:44:00,51.7,36.5,30.24,NW,321,3.0,7.0,56,0.00,,,0.00,181,Wunderground v.1.15,2013-03-14 12:44:00,
2013-03-14 08:50:00,52.0,36.3,30.24,NW,311,4.0,6.0,55,0.00,,,0.00,206,Wunderground v.1.15,2013-03-14 12:50:00,
2013-03-14 08:56:00,52.3,36.6,30.24,NW,325,5.0,11.0,55,0.00,,,0.00,227,Wunderground v.1.15,2013-03-14 12:56:00,
2013-03-14 09:02:00,52.6,36.9,30.24,NW,323,5.0,11.0,55,0.00,,,0.00,251,Wunderground v.1.15,2013-03-14 13:02:00,
2013-03-14 09:08:00,53.0,36.8,30.24,NW,309,5.0,11.0,54,0.00,,,0.00,276,Wunderground v.1.15,2013-03-14 13:08:00,
2013-03-14 09:14:00,53.5,36.8,30.24,NNW,340,4.0,11.0,53,0.00,,,0.00,299,Wunderground v.1.15,2013-03-14 13:14:00,
2013-03-14 09:20:00,53.9,36.7,30.25,WNW,299,3.0,5.0,52,0.00,,,0.00,323,Wunderground v.1.15,2013-03-14 13:20:00,
2013-03-14 09:26:00,54.3,36.5,30.24,NW,323,4.0,13.0,51,0.00,,,0.00,345,Wunderground v.1.15,2013-03-14 13:26:00,
2013-03-14 09:32:00,54.6,36.8,30.25,NNW,340,5.0,6.0,51,0.00,,,0.00,369,Wunderground v.1.15,2013-03-14 13:32:00,
2013-03-14 09:38:00,55.1,36.8,30.25,WNW,300,5.0,6.0,50,0.00,,,0.00,390,Wunderground v.1.15,2013-03-14 13:38:00,
2013-03-14 09:44:00,55.5,37.1,30.25,North,360,6.0,10.0,50,0.00,,,0.00,413,Wunderground v.1.15,2013-03-14 13:44:00,
2013-03-14 09:50:00,55.8,36.9,30.25,West,280,6.0,6.0,49,0.00,,,0.00,436,Wunderground v.1.15,2013-03-14 13:50:00,
2013-03-14 09:56:00,56.0,37.1,30.25,NNW,331,8.0,15.0,49,0.00,,,0.00,459,Wunderground v.1.15,2013-03-14 13:56:00,
2013-03-14 10:02:00,56.2,37.3,30.25,NNW,333,9.0,9.0,49,0.00,,,0.00,478,Wunderground v.1.15,2013-03-14 14:02:00,
2013-03-14 10:08:00,56.8,38.3,30.25,NNW,327,6.0,13.0,50,0.00,,,0.00,501,Wunderground v.1.15,2013-03-14 14:08:00,
2013-03-14 10:14:00,57.2,38.2,30.26,NW,323,4.0,7.0,49,0.00,,,0.00,524,Wunderground v.1.15,2013-03-14 14:14:00,
2013-03-14 10:20:00,57.8,38.8,30.25,WNW,301,4.0,6.0,49,0.00,,,0.00,543,Wunderground v.1.15,2013-03-14 14:20:00,
2013-03-14 10:26:00,58.1,39.5,30.25,North,355,7.0,9.0,50,0.00,,,0.00,563,Wunderground v.1.15,2013-03-14 14:26:00,
2013-03-14 10:32:00,58.0,39.5,30.26,North,355,10.0,13.0,50,0.00,,,0.00,582,Wunderground v.1.15,2013-03-14 14:32:00,
2013-03-14 10:38:00,57.9,39.9,30.26,NNW,340,11.0,20.0,51,0.00,,,0.00,603,Wunderground v.1.15,2013-03-14 14:38:00,
2013-03-14 10:44:00,57.6,40.6,30.25,North,349,13.0,17.0,53,0.00,,,0.00,621,Wunderground v.1.15,2013-03-14 14:44:00,
2013-03-14 10:50:00,57.7,40.7,30.26,North,9,12.0,12.0,53,0.00,,,0.00,640,Wunderground v.1.15,2013-03-14 14:50:00,
2013-03-14 10:56:00,57.9,40.9,30.25,NNE,22,10.0,13.0,53,0.00,,,0.00,657,Wunderground v.1.15,2013-03-14 14:56:00,
2013-03-14 11:02:00,58.5,41.4,30.25,North,355,9.0,13.0,53,0.00,,,0.00,675,Wunderground v.1.15,2013-03-14 15:02:00,
2013-03-14 11:08:00,58.7,41.6,30.25,NE,49,9.0,13.0,53,0.00,,,0.00,693,Wunderground v.1.15,2013-03-14 15:08:00,
2013-03-14 11:14:00,58.9,41.8,30.25,NNW,346,8.0,10.0,53,0.00,,,0.00,710,Wunderground v.1.15,2013-03-14 15:14:00,
2013-03-14 11:20:00,58.7,41.1,30.25,North,355,10.0,13.0,52,0.00,,,0.00,726,Wunderground v.1.15,2013-03-14 15:20:00,
2013-03-14 11:26:00,58.8,41.2,30.25,NNW,331,10.0,14.0,52,0.00,,,0.00,738,Wunderground v.1.15,2013-03-14 15:26:00,
2013-03-14 11:32:00,59.1,42.0,30.25,NNE,22,8.0,9.0,53,0.00,,,0.00,756,Wunderground v.1.15,2013-03-14 15:32:00,
2013-03-14 11:38:00,59.9,43.2,30.25,North,355,7.0,13.0,54,0.00,,,0.00,770,Wunderground v.1.15,2013-03-14 15:38:00,
2013-03-14 11:44:00,59.9,42.2,30.25,North,360,8.0,23.0,52,0.00,,,0.00,786,Wunderground v.1.15,2013-03-14 15:44:00,
2013-03-14 11:50:00,59.5,42.8,30.25,NNW,331,8.0,10.0,54,0.00,,,0.00,796,Wunderground v.1.15,2013-03-14 15:50:00,
2013-03-14 11:56:00,59.8,43.6,30.25,NNW,344,7.0,15.0,55,0.00,,,0.00,814,Wunderground v.1.15,2013-03-14 15:56:00,
2013-03-14 12:02:00,59.9,42.7,30.25,North,355,8.0,18.0,53,0.00,,,0.00,821,Wunderground v.1.15,2013-03-14 16:02:00,
2013-03-14 12:08:00,60.0,43.3,30.25,NNE,15,8.0,18.0,54,0.00,,,0.00,831,Wunderground v.1.15,2013-03-14 16:08:00,
2013-03-14 12:14:00,60.2,44.9,30.25,NNE,30,8.0,15.0,57,0.00,,,0.00,837,Wunderground v.1.15,2013-03-14 16:14:00,
2013-03-14 12:20:00,60.5,44.2,30.25,North,355,7.0,7.0,55,0.00,,,0.00,849,Wunderground v.1.15,2013-03-14 16:20:00,
2013-03-14 12:26:00,61.3,44.5,30.25,NNE,13,6.0,7.0,54,0.00,,,0.00,853,Wunderground v.1.15,2013-03-14 16:26:00,
2013-03-14 12:32:00,61.4,44.1,30.25,NE,36,7.0,7.0,53,0.00,,,0.00,868,Wunderground v.1.15,2013-03-14 16:32:00,
2013-03-14 12:38:00,61.5,44.2,30.25,NNW,346,8.0,12.0,53,0.00,,,0.00,874,Wunderground v.1.15,2013-03-14 16:38:00,
2013-03-14 12:44:00,61.1,44.3,30.25,NNW,333,9.0,15.0,54,0.00,,,0.00,881,Wunderground v.1.15,2013-03-14 16:44:00,
2013-03-14 12:50:00,61.1,45.3,30.25,NNW,345,10.0,10.0,56,0.00,,,0.00,891,Wunderground v.1.15,2013-03-14 16:50:00,
2013-03-14 12:56:00,61.2,44.4,30.24,North,5,9.0,15.0,54,0.00,,,0.00,898,Wunderground v.1.15,2013-03-14 16:56:00,
2013-03-14 13:02:00,61.5,44.7,30.24,NNE,14,8.0,12.0,54,0.00,,,0.00,900,Wunderground v.1.15,2013-03-14 17:02:00,
2013-03-14 13:08:00,62.0,45.2,30.24,NNW,348,8.0,12.0,54,0.00,,,0.00,907,Wunderground v.1.15,2013-03-14 17:08:00,
2013-03-14 13:14:00,61.7,44.4,30.24,NE,38,8.0,14.0,53,0.00,,,0.00,912,Wunderground v.1.15,2013-03-14 17:14:00,
2013-03-14 13:20:00,61.1,43.8,30.23,NE,46,10.0,10.0,53,0.00,,,0.00,914,Wunderground v.1.15,2013-03-14 17:20:00,
2013-03-14 13:26:00,61.3,43.5,30.24,North,351,10.0,10.0,52,0.00,,,0.00,916,Wunderground v.1.15,2013-03-14 17:26:00,
2013-03-14 13:32:00,61.2,43.4,30.23,North,5,9.0,12.0,52,0.00,,,0.00,921,Wunderground v.1.15,2013-03-14 17:32:00,
2013-03-14 13:38:00,61.2,43.4,30.23,North,355,9.0,15.0,52,0.00,,,0.00,919,Wunderground v.1.15,2013-03-14 17:38:00,
2013-03-14 13:44:00,61.2,43.4,30.23,North,5,9.0,14.0,52,0.00,,,0.00,921,Wunderground v.1.15,2013-03-14 17:44:00,
2013-03-14 13:50:00,61.4,43.1,30.23,North,350,8.0,9.0,51,0.00,,,0.00,889,Wunderground v.1.15,2013-03-14 17:50:00,
2013-03-14 13:56:00,61.5,43.2,30.23,North,5,8.0,12.0,51,0.00,,,0.00,919,Wunderground v.1.15,2013-03-14 17:56:00,
2013-03-14 14:02:00,61.6,43.3,30.23,North,360,9.0,13.0,51,0.00,,,0.00,921,Wunderground v.1.15,2013-03-14 18:02:00,
2013-03-14 14:08:00,61.6,43.3,30.23,NNE,32,8.0,13.0,51,0.00,,,0.00,918,Wunderground v.1.15,2013-03-14 18:08:00,
2013-03-14 14:14:00,61.8,43.5,30.22,North,360,8.0,15.0,51,0.00,,,0.00,916,Wunderground v.1.15,2013-03-14 18:14:00,
2013-03-14 14:20:00,62.0,43.7,30.23,NNE,22,8.0,9.0,51,0.00,,,0.00,909,Wunderground v.1.15,2013-03-14 18:20:00,
2013-03-14 14:26:00,62.1,43.7,30.23,NNW,348,8.0,13.0,51,0.00,,,0.00,911,Wunderground v.1.15,2013-03-14 18:26:00,
2013-03-14 14:32:00,62.3,43.9,30.22,North,355,7.0,14.0,51,0.00,,,0.00,905,Wunderground v.1.15,2013-03-14 18:32:00,
2013-03-14 14:38:00,62.3,43.4,30.22,NNW,340,8.0,17.0,50,0.00,,,0.00,891,Wunderground v.1.15,2013-03-14 18:38:00,
2013-03-14 14:44:00,62.2,43.3,30.22,North,10,8.0,15.0,50,0.00,,,0.00,888,Wunderground v.1.15,2013-03-14 18:44:00,
2013-03-14 14:50:00,62.1,43.2,30.22,NNW,342,8.0,8.0,50,0.00,,,0.00,875,Wunderground v.1.15,2013-03-14 18:50:00,
2013-03-14 14:56:00,62.0,43.1,30.22,North,5,8.0,16.0,50,0.00,,,0.00,870,Wunderground v.1.15,2013-03-14 18:56:00,
2013-03-14 15:02:00,62.1,43.7,30.22,NNW,342,8.0,14.0,51,0.00,,,0.00,870,Wunderground v.1.15,2013-03-14 19:02:00,
2013-03-14 15:08:00,62.2,43.8,30.22,NNE,19,9.0,14.0,51,0.00,,,0.00,838,Wunderground v.1.15,2013-03-14 19:08:00,
2013-03-14 15:14:00,62.2,44.9,30.21,NNE,18,7.0,12.0,53,0.00,,,0.00,842,Wunderground v.1.15,2013-03-14 19:14:00,
2013-03-14 15:20:00,62.4,44.0,30.21,NNW,338,7.0,7.0,51,0.00,,,0.00,830,Wunderground v.1.15,2013-03-14 19:20:00,
2013-03-14 15:26:00,62.1,43.7,30.21,NNW,346,8.0,12.0,51,0.00,,,0.00,816,Wunderground v.1.15,2013-03-14 19:26:00,
2013-03-14 15:32:00,62.0,43.7,30.21,North,5,8.0,14.0,51,0.00,,,0.00,805,Wunderground v.1.15,2013-03-14 19:32:00,
2013-03-14 15:38:00,61.9,43.6,30.21,North,9,8.0,14.0,51,0.00,,,0.00,795,Wunderground v.1.15,2013-03-14 19:38:00,
2013-03-14 15:44:00,62.1,44.3,30.21,NNE,23,8.0,11.0,52,0.00,,,0.00,777,Wunderground v.1.15,2013-03-14 19:44:00,
2013-03-14 15:50:00,62.0,43.1,30.21,North,10,8.0,13.0,50,0.00,,,0.00,758,Wunderground v.1.15,2013-03-14 19:50:00,
2013-03-14 15:56:00,61.8,43.5,30.20,North,5,9.0,14.0,51,0.00,,,0.00,751,Wunderground v.1.15,2013-03-14 19:56:00,
2013-03-14 16:02:00,61.7,43.9,30.21,North,355,8.0,8.0,52,0.00,,,0.00,738,Wunderground v.1.15,2013-03-14 20:02:00,
2013-03-14 16:08:00,61.9,43.6,30.21,North,355,9.0,17.0,51,0.00,,,0.00,722,Wunderground v.1.15,2013-03-14 20:08:00,
2013-03-14 16:14:00,61.6,43.8,30.21,NNW,331,9.0,14.0,52,0.00,,,0.00,689,Wunderground v.1.15,2013-03-14 20:14:00,
2013-03-14 16:20:00,61.6,42.2,30.22,North,355,9.0,11.0,49,0.00,,,0.00,668,Wunderground v.1.15,2013-03-14 20:20:00,
2013-03-14 16:26:00,61.5,43.2,30.21,North,355,8.0,16.0,51,0.00,,,0.00,673,Wunderground v.1.15,2013-03-14 20:26:00,
2013-03-14 16:32:00,61.3,42.5,30.21,NNW,344,8.0,13.0,50,0.00,,,0.00,647,Wunderground v.1.15,2013-03-14 20:32:00,
2013-03-14 16:38:00,61.3,43.0,30.21,NNW,331,8.0,13.0,51,0.00,,,0.00,636,Wunderground v.1.15,2013-03-14 20:38:00,
2013-03-14 16:44:00,61.2,42.9,30.20,NNW,348,8.0,8.0,51,0.00,,,0.00,615,Wunderground v.1.15,2013-03-14 20:44:00,
2013-03-14 16:50:00,61.1,41.8,30.20,North,5,8.0,8.0,49,0.00,,,0.00,598,Wunderground v.1.15,2013-03-14 20:50:00,
2013-03-14 16:56:00,61.0,42.2,30.20,NNW,342,9.0,19.0,50,0.00,,,0.00,575,Wunderground v.1.15,2013-03-14 20:56:00,
2013-03-14 17:02:00,61.0,42.7,30.20,NNE,26,9.0,14.0,51,0.00,,,0.00,555,Wunderground v.1.15,2013-03-14 21:02:00,
2013-03-14 17:08:00,60.7,43.9,30.19,NE,44,7.0,14.0,54,0.00,,,0.00,531,Wunderground v.1.15,2013-03-14 21:08:00,
2013-03-14 17:14:00,60.6,42.4,30.19,North,5,7.0,12.0,51,0.00,,,0.00,512,Wunderground v.1.15,2013-03-14 21:14:00,
2013-03-14 17:20:00,60.6,42.9,30.20,NNE,17,7.0,7.0,52,0.00,,,0.00,489,Wunderground v.1.15,2013-03-14 21:20:00,
2013-03-14 17:26:00,60.6,43.9,30.20,NE,37,6.0,11.0,54,0.00,,,0.00,468,Wunderground v.1.15,2013-03-14 21:26:00,
2013-03-14 17:32:00,60.5,44.2,30.20,NE,38,6.0,9.0,55,0.00,,,0.00,446,Wunderground v.1.15,2013-03-14 21:32:00,
2013-03-14 17:38:00,59.8,44.5,30.21,NNE,28,7.0,19.0,57,0.00,,,0.00,418,Wunderground v.1.15,2013-03-14 21:38:00,
2013-03-14 17:44:00,59.6,44.8,30.20,NNE,28,8.0,9.0,58,0.00,,,0.00,394,Wunderground v.1.15,2013-03-14 21:44:00,
2013-03-14 17:50:00,59.6,44.8,30.21,North,5,7.0,7.0,58,0.00,,,0.00,374,Wunderground v.1.15,2013-03-14 21:50:00,
2013-03-14 17:56:00,59.7,44.9,30.21,ENE,66,6.0,12.0,58,0.00,,,0.00,348,Wunderground v.1.15,2013-03-14 21:56:00,
2013-03-14 18:02:00,59.4,44.6,30.21,NNE,28,7.0,9.0,58,0.00,,,0.00,323,Wunderground v.1.15,2013-03-14 22:02:00,
2013-03-14 18:08:00,59.2,44.4,30.21,North,5,6.0,15.0,58,0.00,,,0.00,279,Wunderground v.1.15,2013-03-14 22:08:00,
2013-03-14 18:14:00,58.6,43.9,30.21,NE,34,6.0,6.0,58,0.00,,,0.00,278,Wunderground v.1.15,2013-03-14 22:14:00,
2013-03-14 18:20:00,58.3,44.5,30.21,North,5,7.0,7.0,60,0.00,,,0.00,250,Wunderground v.1.15,2013-03-14 22:20:00,
2013-03-14 18:26:00,58.0,44.6,30.21,North,360,6.0,8.0,61,0.00,,,0.00,225,Wunderground v.1.15,2013-03-14 22:26:00,
2013-03-14 18:32:00,58.0,44.2,30.21,NNE,17,6.0,8.0,60,0.00,,,0.00,193,Wunderground v.1.15,2013-03-14 22:32:00,
2013-03-14 18:38:00,57.8,44.0,30.22,North,350,6.0,12.0,60,0.00,,,0.00,169,Wunderground v.1.15,2013-03-14 22:38:00,
2013-03-14 18:44:00,57.6,44.2,30.22,North,9,6.0,11.0,61,0.00,,,0.00,139,Wunderground v.1.15,2013-03-14 22:44:00,
2013-03-14 18:50:00,57.4,44.1,30.22,NNE,29,6.0,6.0,61,0.00,,,0.00,111,Wunderground v.1.15,2013-03-14 22:50:00,
2013-03-14 18:56:00,57.4,44.1,30.22,North,355,5.0,9.0,61,0.00,,,0.00,88,Wunderground v.1.15,2013-03-14 22:56:00,
2013-03-14 19:02:00,57.1,45.0,30.22,NNE,17,6.0,9.0,64,0.00,,,0.00,62,Wunderground v.1.15,2013-03-14 23:02:00,
2013-03-14 19:08:00,57.0,45.3,30.22,NNE,26,8.0,9.0,65,0.00,,,0.00,46,Wunderground v.1.15,2013-03-14 23:08:00,
2013-03-14 19:14:00,56.8,45.6,30.22,North,5,6.0,12.0,66,0.00,,,0.00,30,Wunderground v.1.15,2013-03-14 23:14:00,
2013-03-14 19:20:00,56.7,45.5,30.22,North,355,7.0,7.0,66,0.00,,,0.00,19,Wunderground v.1.15,2013-03-14 23:20:00,
2013-03-14 19:26:00,56.4,45.2,30.22,NNE,32,6.0,15.0,66,0.00,,,0.00,11,Wunderground v.1.15,2013-03-14 23:26:00,
2013-03-14 19:32:00,56.3,44.3,30.22,NE,44,5.0,10.0,64,0.00,,,0.00,5,Wunderground v.1.15,2013-03-14 23:32:00,
2013-03-14 19:38:00,56.2,44.2,30.22,NNW,345,8.0,11.0,64,0.00,,,0.00,0,Wunderground v.1.15,2013-03-14 23:38:00,
2013-03-14 19:44:00,56.0,44.4,30.22,NE,37,8.0,12.0,65,0.00,,,0.00,0,Wunderground v.1.15,2013-03-14 23:44:00,
2013-03-14 19:50:00,56.0,45.2,30.22,North,5,9.0,10.0,67,0.00,,,0.00,0,Wunderground v.1.15,2013-03-14 23:50:00,
2013-03-14 19:56:00,56.0,45.2,30.22,North,355,9.0,10.0,67,0.00,,,0.00,0,Wunderground v.1.15,2013-03-14 23:56:00,
2013-03-14 20:02:00,56.0,45.2,30.22,NNW,338,6.0,7.0,67,0.00,,,0.00,0,Wunderground v.1.15,2013-03-15 00:02:00,
2013-03-14 20:08:00,55.9,45.1,30.22,NNE,15,7.0,11.0,67,0.00,,,0.00,0,Wunderground v.1.15,2013-03-15 00:08:00,
2013-03-14 20:14:00,55.9,45.1,30.22,NNW,340,8.0,13.0,67,0.00,,,0.00,0,Wunderground v.1.15,2013-03-15 00:14:00,
2013-03-14 20:20:00,55.9,45.5,30.22,NNW,346,6.0,6.0,68,0.00,,,0.00,0,Wunderground v.1.15,2013-03-15 00:20:00,
2013-03-14 20:26:00,55.9,45.1,30.22,North,355,7.0,13.0,67,0.00,,,0.00,0,Wunderground v.1.15,2013-03-15 00:26:00,
2013-03-14 20:32:00,55.8,45.0,30.22,NNE,13,8.0,8.0,67,0.00,,,0.00,0,Wunderground v.1.15,2013-03-15 00:32:00,
2013-03-14 20:38:00,55.9,45.1,30.22,NNE,12,9.0,10.0,67,0.00,,,0.00,0,Wunderground v.1.15,2013-03-15 00:38:00,
2013-03-14 20:44:00,55.9,45.1,30.22,NNE,21,7.0,12.0,67,0.00,,,0.00,0,Wunderground v.1.15,2013-03-15 00:44:00,
2013-03-14 20:50:00,55.9,45.5,30.22,NNE,22,8.0,9.0,68,0.00,,,0.00,0,Wunderground v.1.15,2013-03-15 00:50:00,
2013-03-14 20:56:00,55.9,45.5,30.22,North,355,8.0,9.0,68,0.00,,,0.00,0,Wunderground v.1.15,2013-03-15 00:56:00,
2013-03-14 21:02:00,55.9,45.5,30.23,North,5,8.0,8.0,68,0.00,,,0.00,0,Wunderground v.1.15,2013-03-15 01:02:00,
2013-03-14 21:08:00,56.0,46.0,30.22,NNE,19,6.0,8.0,69,0.00,,,0.00,0,Wunderground v.1.15,2013-03-15 01:08:00,
2013-03-14 21:14:00,56.2,46.2,30.23,NNE,26,6.0,15.0,69,0.00,,,0.00,0,Wunderground v.1.15,2013-03-15 01:14:00,
2013-03-14 21:20:00,56.3,46.3,30.23,NNE,13,6.0,6.0,69,0.00,,,0.00,0,Wunderground v.1.15,2013-03-15 01:20:00,
2013-03-14 21:26:00,56.3,46.3,30.23,NNE,32,5.0,8.0,69,0.00,,,0.00,0,Wunderground v.1.15,2013-03-15 01:26:00,
2013-03-14 21:32:00,56.3,45.9,30.23,NNE,12,5.0,9.0,68,0.00,,,0.00,0,Wunderground v.1.15,2013-03-15 01:32:00,
2013-03-14 21:38:00,56.3,46.3,30.23,NNE,22,6.0,9.0,69,0.00,,,0.00,0,Wunderground v.1.15,2013-03-15 01:38:00,
2013-03-14 21:44:00,56.3,45.9,30.23,North,5,6.0,11.0,68,0.00,,,0.00,0,Wunderground v.1.15,2013-03-15 01:44:00,
2013-03-14 21:50:00,56.4,46.0,30.23,North,5,6.0,9.0,68,0.00,,,0.00,0,Wunderground v.1.15,2013-03-15 01:50:00,
2013-03-14 21:56:00,56.4,46.4,30.23,NNE,12,4.0,9.0,69,0.00,,,0.00,0,Wunderground v.1.15,2013-03-15 01:56:00,
2013-03-14 22:02:00,56.4,46.4,30.23,North,355,3.0,9.0,69,0.00,,,0.00,0,Wunderground v.1.15,2013-03-15 02:02:00,
2013-03-14 22:08:00,56.4,46.0,30.24,NNE,13,4.0,9.0,68,0.00,,,0.00,0,Wunderground v.1.15,2013-03-15 02:08:00,
2013-03-14 22:14:00,56.5,45.3,30.24,NNW,335,4.0,6.0,66,0.00,,,0.00,0,Wunderground v.1.15,2013-03-15 02:14:00,
2013-03-14 22:20:00,56.5,45.3,30.24,North,5,4.0,4.0,66,0.00,,,0.00,0,Wunderground v.1.15,2013-03-15 02:20:00,
2013-03-14 22:26:00,56.5,45.7,30.24,NNE,15,6.0,6.0,67,0.00,,,0.00,0,Wunderground v.1.15,2013-03-15 02:26:00,
2013-03-14 22:32:00,56.6,45.8,30.25,North,11,4.0,4.0,67,0.00,,,0.00,0,Wunderground v.1.15,2013-03-15 02:32:00,
2013-03-14 22:38:00,56.6,45.4,30.25,NNE,18,2.0,4.0,66,0.00,,,0.00,0,Wunderground v.1.15,2013-03-15 02:38:00,
2013-03-14 22:44:00,56.5,44.9,30.25,NNW,338,1.0,4.0,65,0.00,,,0.00,0,Wunderground v.1.15,2013-03-15 02:44:00,
2013-03-14 22:50:00,56.5,45.3,30.25,North,360,1.0,1.0,66,0.00,,,0.00,0,Wunderground v.1.15,2013-03-15 02:50:00,
2013-03-14 22:56:00,56.5,45.7,30.25,NNE,32,0.0,3.0,67,0.00,,,0.00,0,Wunderground v.1.15,2013-03-15 02:56:00,
2013-03-14 23:02:00,56.5,45.7,30.25,NNE,26,0.0,0.0,67,0.00,,,0.00,0,Wunderground v.1.15,2013-03-15 03:02:00,
2013-03-14 23:08:00,56.5,45.3,30.25,North,360,0.0,0.0,66,0.00,,,0.00,0,Wunderground v.1.15,2013-03-15 03:08:00,
2013-03-14 23:14:00,56.4,45.2,30.25,North,9,1.0,1.0,66,0.00,,,0.00,0,Wunderground v.1.15,2013-03-15 03:14:00,
2013-03-14 23:20:00,56.4,44.8,30.25,NNW,340,1.0,1.0,65,0.00,,,0.00,0,Wunderground v.1.15,2013-03-15 03:20:00,
2013-03-14 23:26:00,56.4,45.2,30.25,North,5,1.0,3.0,66,0.00,,,0.00,0,Wunderground v.1.15,2013-03-15 03:26:00,
2013-03-14 23:32:00,56.5,45.3,30.25,North,5,2.0,5.0,66,0.00,,,0.00,0,Wunderground v.1.15,2013-03-15 03:32:00,
2013-03-14 23:38:00,56.5,44.9,30.25,North,11,2.0,5.0,65,0.00,,,0.00,0,Wunderground v.1.15,2013-03-15 03:38:00,
2013-03-14 23:44:00,56.4,44.0,30.25,NNW,345,2.0,3.0,63,0.00,,,0.00,0,Wunderground v.1.15,2013-03-15 03:44:00,
2013-03-14 23:50:00,56.4,44.0,30.26,North,5,3.0,5.0,63,0.00,,,0.00,0,Wunderground v.1.15,2013-03-15 03:50:00,
2013-03-14 23:56:00,56.4,44.4,30.26,NNE,18,2.0,5.0,64,0.00,,,0.00,0,Wunderground v.1.15,2013-03-15 03:56:00,